All Stations Radar Satellite Rainfall Station Map Enhanced Site
Observations: Wind Gusts Humidity Temperature    
Forecasts: Wind Gusts Humidity Temperature    

Mt. Soledad (578) Station Data (Station Map)

Red Flag Warning: No
Fire Weather Zone: 243
SDGE Region: Beach Cities
Lat/Lon: 32.814/-117.241

Observations

Time (PDT)Wind Spd/GustTempRHFuel Moisture
8/27 3:40amNNW 2 G 567°88%15.93%
8/27 3:30amNNW 3 G 667°88%15.93%
8/27 3:20amNNW 2 G 567°89%15.91%
8/27 3:10amN 3 G 567°89%15.86%
8/27 3:00amNNW 4 G 667°90%15.77%
8/27 2:50amN 4 G 567°90%15.71%
8/27 2:40amN 3 G 567°89%15.58%
8/27 2:30amNNW 2 G 467°89%15.47%
8/27 2:20amNW 1 G 367°90%15.42%
8/27 2:10amNNW 3 G 567°91%15.4%
8/27 2:00amNNW 3 G 467°91%15.26%
8/27 1:50amNNW 2 G 367°92%15.18%
8/27 1:40amNW 3 G 468°92%15.11%
8/27 1:30amNW 2 G 468°91%15%
8/27 1:20amWSW 0 G 167°91%14.86%
8/27 1:10amS 1 G 167°91%14.76%
8/27 1:00amNNW 1 G 367°91%14.63%
8/27 12:50amNNW 2 G 467°92%14.52%
8/27 12:40amNNW 1 G 367°91%14.34%
8/27 12:30amNE 0 G 167°91%14.19%
8/27 12:20amENE 2 G 568°91%14.05%
8/27 12:10amNNW 5 G 868°91%13.98%
8/27 12:00amNNW 5 G 768°91%13.84%
8/26 11:50pmNNW 4 G 768°90%13.66%
8/26 11:40pmNNW 2 G 368°91%13.44%
8/26 11:30pmNNE 1 G 167°90%13.27%
8/26 11:20pmESE 0 G 167°90%13.06%
8/26 11:10pmE 0 G 268°89%12.93%
8/26 11:00pmNNE 1 G 368°90%12.81%
8/26 10:50pmNW 4 G 769°90%12.75%
8/26 10:40pmNW 3 G 669°89%12.61%
8/26 10:30pmNW 3 G 569°89%12.47%
8/26 10:20pmNNW 3 G 569°88%12.3%
8/26 10:10pmNNW 2 G 369°87%12.05%
8/26 10:00pmNW 2 G 369°86%12%
8/26 9:50pmNW 2 G 469°84%11.86%
8/26 9:40pmNW 2 G 370°82%11.75%
8/26 9:30pmWSW 1 G 270°81%11.64%
8/26 9:20pmNW 1 G 270°80%11.54%
8/26 9:10pmN 0 G 270°78%11.36%
8/26 9:00pmSSE 0 G 170°78%11.31%
8/26 8:50pmS 2 G 470°77%11.29%
8/26 8:40pmN 3 G 770°76%11.21%
8/26 8:30pmN 6 G 970°76%11.14%
8/26 8:20pmN 4 G 870°78%11.06%
8/26 8:10pmN 3 G 570°78%10.96%
8/26 8:00pmN 2 G 770°78%10.86%
8/26 7:50pmNW 2 G 470°80%10.81%
8/26 7:40pmNW 3 G 670°82%10.72%
8/26 7:30pmN 3 G 570°82%10.58%
8/26 7:20pmNNE 4 G 670°79%10.44%
8/26 7:10pmNNW 2 G 571°76%10.35%
8/26 7:00pmNNW 5 G 872°74%10.26%
8/26 6:50pmNW 4 G 872°74%10.21%
8/26 6:40pmWNW 5 G 1072°72%10.16%
8/26 6:30pmNW 4 G 973°71%10.17%
8/26 6:20pmNW 4 G 873°71%10.15%
8/26 6:10pmWNW 5 G 1073°70%10.15%
8/26 6:00pmNW 7 G 1173°71%10.13%
8/26 5:50pmWNW 5 G 873°70%10.16%
8/26 5:40pmWNW 5 G 973°72%10.17%
8/26 5:30pmNW 6 G 1173°74%10.2%
8/26 5:20pmNW 6 G 1173°74%10.2%
8/26 5:10pmWNW 5 G 1174°73%10.15%
8/26 5:00pmNW 6 G 1174°72%10.16%
8/26 4:50pmNW 7 G 1173°71%10.23%
8/26 4:40pmNW 7 G 1174°70%10.18%
8/26 4:30pmNW 7 G 1374°69%10.21%
8/26 4:20pmWNW 6 G 1274°66%10.16%
8/26 4:10pmNW 8 G 1374°65%10.18%
8/26 4:00pmNW 7 G 1374°68%10.22%
8/26 3:50pmNW 7 G 1375°70%10.27%
8/26 3:40pmNNW 7 G 1274°71%10.36%
8/26 3:30pmNW 6 G 1174°70%10.33%
8/26 3:20pmNW 6 G 1374°71%10.38%
8/26 3:10pmNW 7 G 1275°70%10.37%
8/26 3:00pmNW 6 G 1175°70%10.46%
8/26 2:50pmNW 7 G 1274°72%10.5%
8/26 2:40pmNW 7 G 1274°72%10.5%
8/26 2:30pmNW 7 G 1274°72%10.53%
8/26 2:20pmWNW 7 G 1374°73%10.5%
8/26 2:10pmNW 8 G 1174°72%10.54%
8/26 2:00pmNW 6 G 1175°70%10.58%
8/26 1:50pmNW 7 G 1474°72%10.59%
8/26 1:40pmNW 8 G 1374°71%10.58%
8/26 1:30pmWNW 8 G 1474°71%10.56%
8/26 1:20pmNW 8 G 1375°70%10.56%
8/26 1:10pmWNW 7 G 1375°70%10.55%
8/26 1:00pmNW 7 G 1375°69%10.55%
8/26 12:50pmWNW 7 G 1374°69%10.46%
8/26 12:40pmWNW 7 G 1475°68%10.42%
8/26 12:30pmNW 7 G 1176°68%10.62%
8/26 12:20pmWNW 6 G 1176°68%10.78%
8/26 12:10pmWNW 7 G 1175°70%10.78%
8/26 12:00pmWNW 6 G 1275°70%10.8%
8/26 11:50amWNW 8 G 1275°70%10.82%
8/26 11:40amNW 8 G 1376°68%10.88%
8/26 11:30amNW 6 G 1077°65%11%
8/26 11:20amWNW 6 G 1176°66%11.13%
8/26 11:10amWNW 5 G 976°67%11.21%
8/26 11:00amWNW 5 G 1076°66%11.28%
8/26 10:50amW 4 G 876°68%11.46%
8/26 10:40amW 5 G 875°69%11.52%
8/26 10:30amWSW 5 G 1075°69%11.58%
8/26 10:20amSW 4 G 875°68%11.72%
8/26 10:10amSW 4 G 875°68%11.85%
8/26 10:00amSW 5 G 875°68%11.99%
8/26 9:50amSSW 4 G 876°66%12.13%
8/26 9:40amSSE 2 G 576°63%12.34%
8/26 9:30amENE 2 G 575°65%12.6%
8/26 9:20amE 3 G 574°66%12.8%
8/26 9:10amNNW 2 G 574°68%13.09%
8/26 9:00amNW 2 G 473°70%13.42%
8/26 8:50amNNE 3 G 672°70%13.68%
8/26 8:40amNNE 2 G 572°73%14.03%
8/26 8:30amNNW 2 G 470°79%14.45%
8/26 8:20amNW 4 G 670°81%14.76%
8/26 8:10amN 4 G 769°82%15.09%
8/26 8:00amNNW 4 G 869°83%15.46%
8/26 7:50amNNW 4 G 769°85%15.81%
8/26 7:40amNNW 4 G 768°86%16.24%
8/26 7:30amNNW 5 G 968°88%16.7%
8/26 7:20amN 5 G 767°90%17.09%
8/26 7:10amN 5 G 866°91%17.49%
8/26 7:00amNNW 5 G 966°92%17.79%
8/26 6:50amNNW 3 G 766°92%17.87%
8/26 6:40amNNW 4 G 866°92%17.79%
8/26 6:30amNNW 4 G 766°92%17.71%
8/26 6:20amNNW 5 G 866°92%17.62%
8/26 6:10amN 4 G 766°91%17.51%
8/26 6:00amNNW 4 G 766°91%17.4%
8/26 5:50amNNW 5 G 866°91%17.31%
8/26 5:40amNNW 3 G 666°91%17.21%
8/26 5:30amN 3 G 566°91%17.09%
8/26 5:20amN 3 G 566°91%17%
8/26 5:10amN 3 G 566°91%16.9%
8/26 5:00amN 4 G 666°91%16.8%
8/26 4:50amN 4 G 666°91%16.71%
8/26 4:40amNNW 4 G 666°91%16.61%
8/26 4:30amN 4 G 666°91%16.52%
8/26 4:20amN 4 G 766°91%16.42%
8/26 4:10amNNW 4 G 666°91%16.33%
8/26 4:00amNNW 5 G 866°91%16.23%
8/26 3:50amN 4 G 766°90%16.12%
8/26 3:40amNNW 4 G 666°90%16.03%
8/26 3:30amN 4 G 566°90%15.9%
8/26 3:20amN 3 G 766°90%15.8%
8/26 3:10amNNW 4 G 766°90%15.73%
8/26 3:00amNNW 5 G 767°89%15.66%
8/26 2:50amNNW 4 G 767°89%15.58%
8/26 2:40amNNW 3 G 566°90%15.49%
8/26 2:30amNNW 3 G 666°90%15.37%
8/26 2:20amNNW 3 G 567°90%15.28%
8/26 2:10amNNW 2 G 567°90%15.17%
8/26 2:00amNNW 1 G 466°89%15.03%
8/26 1:50amNW 0 G 266°89%14.88%
8/26 1:40amNNW 0 G 166°89%14.84%
8/26 1:30amNNW 0 G 266°89%14.7%
8/26 1:20amNNW 0 G 266°89%14.6%
8/26 1:10amN 0 G 067°89%14.45%
8/26 1:00amESE 0 G 167°88%14.35%
8/26 12:50amNNE 0 G 167°88%14.29%
8/26 12:40amNNW 2 G 467°88%14.21%
8/26 12:30amNW 2 G 467°88%14.11%
8/26 12:20amNNW 1 G 467°88%14.05%
8/26 12:10amNNW 0 G 167°88%13.88%
8/26 12:00amN 1 G 467°88%13.8%
8/25 11:50pmN 2 G 367°88%13.68%
8/25 11:40pmNNW 2 G 367°87%13.59%
8/25 11:30pmNNW 2 G 467°87%13.5%
8/25 11:20pmNNW 2 G 467°87%13.38%
8/25 11:10pmNNW 1 G 367°87%13.26%
8/25 11:00pmNNW 2 G 368°86%13.14%
8/25 10:50pmNW 2 G 468°86%13.07%
8/25 10:40pmNW 2 G 468°86%13.01%
8/25 10:30pmNW 0 G 268°86%12.92%
8/25 10:20pmNW 0 G 168°86%12.8%
8/25 10:10pmNW 2 G 568°86%12.76%
8/25 10:00pmNNW 2 G 468°86%12.65%
8/25 9:50pmNW 1 G 268°86%12.57%
8/25 9:40pmNNW 2 G 468°86%12.46%
8/25 9:30pmNW 1 G 468°86%12.39%
8/25 9:20pmNW 2 G 468°86%12.29%
8/25 9:10pmNNW 4 G 668°86%12.18%
8/25 9:00pmNNW 3 G 668°86%12.08%
8/25 8:50pmNW 3 G 768°86%11.97%
8/25 8:40pmNNW 2 G 568°86%11.84%
8/25 8:30pmNNW 3 G 669°86%11.72%
8/25 8:20pmNW 3 G 569°85%11.62%
8/25 8:10pmNNW 3 G 669°85%11.5%
8/25 8:00pmNNW 3 G 869°85%11.39%
8/25 7:50pmNNW 5 G 869°85%11.27%
8/25 7:40pmNNW 3 G 869°84%11.14%
8/25 7:30pmNW 4 G 869°84%11.03%
8/25 7:20pmNNW 5 G 969°84%10.9%
8/25 7:10pmNNW 6 G 1070°83%10.78%
8/25 7:00pmNW 6 G 1170°80%10.64%
8/25 6:50pmNW 6 G 1070°80%10.55%
8/25 6:40pmNW 5 G 1071°80%10.52%
8/25 6:30pmNW 5 G 971°79%10.44%
8/25 6:20pmNW 6 G 1171°77%10.36%
8/25 6:10pmNW 6 G 1271°75%10.34%
8/25 6:00pmNW 6 G 1072°72%10.37%